createdAt,value
2018-03-02T00:01:01.266Z,0.73
2018-03-02T00:03:30.388Z,0.66
2018-03-02T00:05:59.482Z,0.63
2018-03-02T00:08:28.586Z,0.55
2018-03-02T00:10:57.700Z,0.48
2018-03-02T00:13:26.789Z,0.47
2018-03-02T00:15:55.894Z,0.53
2018-03-02T00:18:24.990Z,0.54
2018-03-02T00:20:54.110Z,0.60
2018-03-02T00:23:23.226Z,0.58
2018-03-02T00:25:52.338Z,0.61
2018-03-02T00:28:22.191Z,0.53
2018-03-02T00:30:51.324Z,0.48
2018-03-02T00:33:20.422Z,0.52
2018-03-02T00:35:49.528Z,0.50
2018-03-02T00:38:18.629Z,0.45
2018-03-02T00:40:48.486Z,0.50
2018-03-02T00:43:17.633Z,0.35
2018-03-02T00:45:46.727Z,0.32
2018-03-02T00:48:15.830Z,0.41
2018-03-02T00:50:45.693Z,0.45
2018-03-02T00:53:14.877Z,0.38
2018-03-02T00:55:43.970Z,0.41
2018-03-02T00:58:13.076Z,0.27
2018-03-02T01:00:42.166Z,0.34
2018-03-02T01:03:11.306Z,0.37
2018-03-02T01:05:41.171Z,0.27
2018-03-02T01:08:10.261Z,0.21
2018-03-02T01:10:39.378Z,0.18
2018-03-02T01:13:09.954Z,0.16
2018-03-02T01:15:39.082Z,0.18
2018-03-02T01:18:08.976Z,0.09
2018-03-02T01:20:38.872Z,0.23
2018-03-02T01:23:07.954Z,0.24
2018-03-02T01:25:37.830Z,0.23
2018-03-02T01:28:06.950Z,0.15
2018-03-02T01:30:36.059Z,0.03
2018-03-02T01:33:05.143Z,0.05
2018-03-02T01:35:34.279Z,0.03
2018-03-02T01:38:03.357Z,0.11
2018-03-02T01:40:32.468Z,0.12
2018-03-02T01:43:01.702Z,0.11
2018-03-02T01:45:30.794Z,0.03
2018-03-02T01:47:59.905Z,-0.04
2018-03-02T01:50:29.003Z,-0.01
2018-03-02T01:52:58.126Z,-0.02
2018-03-02T01:55:27.215Z,-0.07
2018-03-02T01:57:56.329Z,-0.08
2018-03-02T02:00:25.432Z,-0.07
2018-03-02T02:02:54.525Z,-0.04
2018-03-02T02:05:23.653Z,-0.02
2018-03-02T02:07:53.516Z,0.05
2018-03-02T02:10:22.620Z,-0.02
2018-03-02T02:12:51.713Z,-0.08
2018-03-02T02:15:20.834Z,-0.06
2018-03-02T02:17:49.939Z,-0.08
2018-03-02T02:20:19.824Z,-0.07
2018-03-02T02:22:48.948Z,-0.18
2018-03-02T02:25:18.055Z,-0.26
2018-03-02T02:27:47.925Z,-0.33
2018-03-02T02:30:17.054Z,-0.40
2018-03-02T02:32:46.910Z,-0.45
2018-03-02T02:35:16.028Z,-0.50
2018-03-02T02:37:45.912Z,-0.44
2018-03-02T02:40:15.003Z,-0.35
2018-03-02T02:42:44.115Z,-0.43
2018-03-02T02:45:13.229Z,-0.44
2018-03-02T02:47:42.345Z,-0.50
2018-03-02T02:50:11.441Z,-0.49
2018-03-02T02:52:40.598Z,-0.55
2018-03-02T02:55:09.705Z,-0.53
2018-03-02T02:57:38.809Z,-0.64
2018-03-02T03:00:07.915Z,-0.58
2018-03-02T03:02:37.032Z,-0.53
2018-03-02T03:05:06.145Z,-0.64
2018-03-02T03:07:36.024Z,-0.61
2018-03-02T03:10:05.128Z,-0.52
2018-03-02T03:12:34.398Z,-0.65
2018-03-02T03:15:03.494Z,-0.64
2018-03-02T03:17:33.386Z,-0.73
2018-03-02T03:20:02.503Z,-0.78
2018-03-02T03:22:31.597Z,-0.64
2018-03-02T03:25:00.787Z,-0.68
2018-03-02T03:27:29.871Z,-0.68
2018-03-02T03:29:58.992Z,-0.70
2018-03-02T03:32:28.082Z,-0.76
2018-03-02T03:34:57.201Z,-0.89
2018-03-02T03:37:26.299Z,-0.91
2018-03-02T03:39:55.414Z,-0.81
2018-03-02T03:42:24.541Z,-0.74
2018-03-02T03:44:53.651Z,-0.81
2018-03-02T03:47:22.746Z,-0.80
2018-03-02T03:49:51.871Z,-0.79
2018-03-02T03:52:20.981Z,-0.69
2018-03-02T03:54:50.133Z,-0.70
2018-03-02T03:57:19.209Z,-0.71
2018-03-02T03:59:49.075Z,-0.63
2018-03-02T04:02:18.197Z,-0.69
2018-03-02T04:04:47.315Z,-0.63
2018-03-02T04:07:17.195Z,-0.83
2018-03-02T04:09:46.287Z,-0.90
2018-03-02T04:12:15.399Z,-0.82
2018-03-02T04:14:44.502Z,-0.82
2018-03-02T04:17:14.383Z,-0.89
2018-03-02T04:19:43.491Z,-0.75
2018-03-02T04:22:12.620Z,-0.77
2018-03-02T04:24:42.488Z,-0.82
2018-03-02T04:27:11.618Z,-0.88
2018-03-02T04:29:40.703Z,-0.99
2018-03-02T04:32:09.821Z,-0.98
2018-03-02T04:34:39.690Z,-1.05
2018-03-02T04:37:08.799Z,-1.09
2018-03-02T04:39:37.904Z,-1.10
2018-03-02T04:42:07.019Z,-1.18
2018-03-02T04:44:36.906Z,-1.17
2018-03-02T04:47:06.008Z,-1.18
2018-03-02T04:49:35.130Z,-1.12
2018-03-02T04:52:05.018Z,-1.07
2018-03-02T04:54:34.113Z,-1.11
2018-03-02T04:57:03.222Z,-1.11
2018-03-02T04:59:32.347Z,-1.13
2018-03-02T05:02:02.209Z,-1.16
2018-03-02T05:04:31.319Z,-1.14
2018-03-02T05:07:00.414Z,-1.07
2018-03-02T05:09:29.533Z,-1.18
2018-03-02T05:11:59.397Z,-1.32
2018-03-02T05:14:28.525Z,-1.32
2018-03-02T05:16:57.630Z,-1.26
2018-03-02T05:19:26.736Z,-1.21
2018-03-02T05:21:56.592Z,-1.12
2018-03-02T05:24:25.692Z,-1.08
2018-03-02T05:26:54.795Z,-1.25
2018-03-02T05:29:23.934Z,-1.22
2018-03-02T05:31:53.805Z,-1.16
2018-03-02T05:34:22.930Z,-1.19
2018-03-02T05:36:52.028Z,-1.12
2018-03-02T05:39:21.180Z,-1.08
2018-03-02T05:41:50.293Z,-1.10
2018-03-02T05:44:19.442Z,-1.16
2018-03-02T05:46:49.314Z,-1.13
2018-03-02T05:49:18.422Z,-1.12
2018-03-02T05:51:47.534Z,-1.15
2018-03-02T05:54:17.397Z,-1.14
2018-03-02T05:56:46.521Z,-1.21
2018-03-02T05:59:15.620Z,-1.19
2018-03-02T06:01:44.757Z,-1.30
2018-03-02T06:04:14.638Z,-1.18
2018-03-02T06:06:43.741Z,-1.14
2018-03-02T06:09:12.849Z,-1.12
2018-03-02T06:11:42.713Z,-1.31
2018-03-02T06:14:12.589Z,-1.35
2018-03-02T06:16:41.753Z,-1.35
2018-03-02T06:19:10.834Z,-1.41
2018-03-02T06:21:39.979Z,-1.36
2018-03-02T06:24:09.832Z,-1.33
2018-03-02T06:26:38.936Z,-1.27
2018-03-02T06:29:08.058Z,-1.34
2018-03-02T06:31:37.186Z,-1.20
2018-03-02T06:34:07.071Z,-1.18
2018-03-02T06:36:37.693Z,-1.21
2018-03-02T06:39:06.816Z,-1.24
2018-03-02T06:41:36.679Z,-1.27
2018-03-02T06:44:05.810Z,-1.30
2018-03-02T06:46:34.917Z,-1.34
2018-03-02T06:49:04.790Z,-1.40
2018-03-02T06:51:33.913Z,-1.26
2018-03-02T06:54:03.029Z,-1.20
2018-03-02T06:56:32.906Z,-1.25
2018-03-02T06:59:02.004Z,-1.32
2018-03-02T07:01:31.117Z,-1.36
2018-03-02T07:04:00.232Z,-1.38
2018-03-02T07:06:30.106Z,-1.28
2018-03-02T07:08:59.206Z,-1.31
2018-03-02T07:11:28.329Z,-1.24
2018-03-02T07:13:58.225Z,-1.30
2018-03-02T07:16:27.342Z,-1.16
2018-03-02T07:18:58.196Z,-1.20
2018-03-02T07:21:28.075Z,-1.19
2018-03-02T07:23:57.200Z,-1.16
2018-03-02T07:26:27.067Z,-1.15
2018-03-02T07:28:56.956Z,-1.06
2018-03-02T07:31:26.071Z,-1.04
2018-03-02T07:33:55.161Z,-1.10
2018-03-02T07:36:24.276Z,-1.15
2018-03-02T07:38:53.370Z,-1.20
2018-03-02T07:41:22.498Z,-1.23
2018-03-02T07:43:52.362Z,-1.29
2018-03-02T07:46:21.482Z,-1.16
2018-03-02T07:48:50.587Z,-1.11
2018-03-02T07:51:19.706Z,-0.98
2018-03-02T07:53:49.613Z,-1.01
2018-03-02T07:56:18.717Z,-1.06
2018-03-02T07:58:48.602Z,-1.05
2018-03-02T08:01:17.721Z,-0.88
2018-03-02T08:03:47.590Z,-1.05
2018-03-02T08:06:16.720Z,-1.05
2018-03-02T08:08:46.610Z,-1.13
2018-03-02T08:11:16.483Z,-1.06
2018-03-02T08:13:45.642Z,-1.13
2018-03-02T08:16:14.758Z,-1.16
2018-03-02T08:18:44.990Z,-1.10
2018-03-02T08:21:14.869Z,-1.09
2018-03-02T08:23:44.001Z,-0.91
2018-03-02T08:26:13.881Z,-0.88
2018-03-02T08:28:42.997Z,-0.74
2018-03-02T08:31:12.238Z,-0.66
2018-03-02T08:33:41.531Z,-0.62
2018-03-02T08:36:10.771Z,-0.64
2018-03-02T08:38:39.869Z,-0.64
2018-03-02T08:41:08.986Z,-0.71
2018-03-02T08:43:38.966Z,-0.73
2018-03-02T08:46:08.086Z,-0.64
2018-03-02T08:48:37.202Z,-0.49
2018-03-02T08:51:07.023Z,-0.42
2018-03-02T08:53:36.870Z,-0.41
2018-03-02T08:56:05.980Z,-0.47
2018-03-02T08:58:35.113Z,-0.46
2018-03-02T09:01:05.010Z,-0.50
2018-03-02T09:03:34.135Z,-0.55
2018-03-02T09:06:04.036Z,-0.38
2018-03-02T09:08:33.181Z,-0.34
2018-03-02T09:11:02.297Z,-0.31
2018-03-02T09:13:31.415Z,-0.26
2018-03-02T09:16:00.518Z,-0.23
2018-03-02T09:18:29.622Z,-0.09
2018-03-02T09:20:59.519Z,-0.04
2018-03-02T09:23:28.649Z,-0.23
2018-03-02T09:25:58.534Z,-0.16
2018-03-02T09:28:27.639Z,-0.09
2018-03-02T09:30:56.759Z,-0.01
2018-03-02T09:33:25.853Z,0.02
2018-03-02T09:35:54.961Z,0.09
2018-03-02T09:38:24.061Z,0.12
2018-03-02T09:40:53.214Z,0.16
2018-03-02T09:43:22.345Z,0.20
2018-03-02T09:45:52.209Z,0.25
2018-03-02T09:48:21.334Z,0.30
2018-03-02T09:50:50.425Z,0.42
2018-03-02T09:53:20.301Z,0.33
2018-03-02T09:55:50.188Z,0.34
2018-03-02T09:58:19.270Z,0.27
2018-03-02T10:00:48.398Z,0.31
2018-03-02T10:03:17.534Z,0.31
2018-03-02T10:05:47.167Z,0.36
2018-03-02T10:08:17.039Z,0.53
2018-03-02T10:10:46.128Z,0.61
2018-03-02T10:13:15.238Z,0.87
2018-03-02T10:15:44.368Z,1.09
2018-03-02T10:18:14.237Z,0.98
2018-03-02T10:20:43.338Z,0.86
2018-03-02T10:23:12.473Z,1.08
2018-03-02T10:25:42.363Z,1.27
2018-03-02T10:28:11.441Z,1.40
2018-03-02T10:30:41.362Z,1.49
2018-03-02T10:33:10.468Z,1.43
2018-03-02T10:35:39.645Z,1.42
2018-03-02T10:38:09.476Z,1.54
2018-03-02T10:40:38.611Z,1.65
2018-03-02T10:43:07.712Z,1.74
2018-03-02T10:45:36.849Z,1.91
2018-03-02T10:48:05.992Z,1.81
2018-03-02T10:50:35.068Z,1.68
2018-03-02T10:53:04.181Z,1.64
2018-03-02T10:55:34.050Z,1.72
2018-03-02T10:58:03.139Z,1.90
2018-03-02T11:00:37.681Z,1.93
2018-03-02T11:03:06.780Z,2.06
2018-03-02T11:05:41.515Z,1.99
2018-03-02T11:08:10.611Z,1.88
2018-03-02T11:10:39.727Z,1.85
2018-03-02T11:13:09.573Z,1.75
2018-03-02T11:15:38.688Z,1.78
2018-03-02T11:18:07.796Z,1.84
2018-03-02T11:20:36.899Z,1.81
2018-03-02T11:23:06.003Z,2.03
2018-03-02T11:25:35.144Z,2.11
2018-03-02T11:28:04.992Z,2.12
2018-03-02T11:30:34.121Z,2.13
2018-03-02T11:33:04.730Z,2.19
2018-03-02T11:35:33.821Z,2.32
2018-03-02T11:38:02.930Z,2.40
2018-03-02T11:40:32.005Z,2.43
2018-03-02T11:43:01.117Z,2.56
2018-03-02T11:45:30.218Z,2.55
2018-03-02T11:47:59.334Z,2.45
2018-03-02T11:50:29.203Z,2.47
2018-03-02T11:52:58.316Z,2.42
2018-03-02T11:55:27.416Z,2.57
2018-03-02T11:57:56.572Z,2.61
2018-03-02T12:00:25.707Z,2.57
2018-03-02T12:02:54.792Z,2.60
2018-03-02T12:05:23.897Z,2.70
2018-03-02T12:07:52.989Z,2.62
2018-03-02T12:10:22.910Z,2.76
2018-03-02T12:12:51.993Z,2.77
2018-03-02T12:15:21.097Z,2.76
2018-03-02T12:17:50.193Z,2.71
2018-03-02T12:20:19.332Z,2.68
2018-03-02T12:22:49.208Z,2.69
2018-03-02T12:25:18.320Z,2.70
2018-03-02T12:27:47.393Z,2.63
2018-03-02T12:30:16.538Z,2.74
2018-03-02T12:32:46.406Z,2.75
2018-03-02T12:35:15.520Z,2.90
2018-03-02T12:37:44.634Z,2.96
2018-03-02T12:40:15.547Z,3.06
2018-03-02T12:42:44.655Z,3.13
2018-03-02T12:45:13.773Z,3.25
2018-03-02T12:47:43.644Z,3.14
2018-03-02T12:50:12.773Z,3.24
2018-03-02T12:52:42.628Z,3.28
2018-03-02T12:55:11.810Z,3.18
2018-03-02T12:57:40.856Z,3.13
2018-03-02T13:00:09.995Z,3.16
2018-03-02T13:02:39.130Z,2.96
2018-03-02T13:05:08.232Z,2.97
2018-03-02T13:07:37.354Z,2.97
2018-03-02T13:10:06.452Z,2.79
2018-03-02T13:12:35.556Z,2.85
2018-03-02T13:15:04.655Z,2.81
2018-03-02T13:17:34.522Z,2.96
2018-03-02T13:20:03.650Z,2.84
2018-03-02T13:22:43.257Z,3.10
2018-03-02T13:25:12.400Z,3.04
2018-03-02T13:27:59.203Z,3.23
2018-03-02T13:30:28.318Z,3.34
2018-03-02T13:33:15.868Z,3.52
2018-03-02T13:35:44.982Z,3.65
2018-03-02T13:38:14.091Z,3.67
2018-03-02T13:41:00.872Z,3.71
2018-03-02T13:43:29.991Z,3.61
2018-03-02T13:45:59.080Z,3.54
2018-03-02T13:48:46.645Z,3.51
2018-03-02T13:51:15.754Z,3.39
2018-03-02T13:53:45.662Z,3.33
2018-03-02T13:56:32.423Z,3.48
2018-03-02T13:59:01.565Z,3.57
2018-03-02T14:01:30.685Z,3.52
2018-03-02T14:04:18.182Z,3.51
2018-03-02T14:06:47.299Z,3.42
2018-03-02T14:09:17.185Z,3.39
2018-03-02T14:11:46.299Z,3.36
2018-03-02T14:14:15.415Z,3.27
2018-03-02T14:16:45.313Z,3.35
2018-03-02T14:19:14.458Z,3.28
2018-03-02T14:21:44.387Z,3.40
2018-03-02T14:24:13.506Z,3.45
2018-03-02T14:26:43.370Z,3.50
2018-03-02T14:29:12.519Z,3.44
2018-03-02T14:31:41.622Z,3.59
2018-03-02T14:34:10.747Z,3.59
2018-03-02T14:36:40.609Z,3.58
2018-03-02T14:39:09.731Z,3.60
2018-03-02T14:41:38.867Z,3.46
2018-03-02T14:44:07.969Z,3.57
2018-03-02T14:46:37.094Z,3.62
2018-03-02T14:49:06.169Z,3.64
2018-03-02T14:51:35.382Z,3.47
2018-03-02T14:54:04.427Z,3.46
2018-03-02T14:56:34.318Z,3.38
2018-03-02T14:59:03.428Z,3.28
2018-03-02T15:01:32.541Z,3.20
2018-03-02T15:04:02.401Z,3.16
2018-03-02T15:06:31.524Z,3.16
2018-03-02T15:09:00.644Z,3.13
2018-03-02T15:11:30.537Z,3.06
2018-03-02T15:13:59.630Z,3.14
2018-03-02T15:16:29.549Z,3.16
2018-03-02T15:18:58.666Z,3.16
2018-03-02T15:21:28.531Z,3.12
2018-03-02T15:23:57.640Z,3.00
2018-03-02T15:26:26.762Z,2.90
2018-03-02T15:28:55.851Z,2.78
2018-03-02T15:31:24.956Z,2.67
2018-03-02T15:33:54.059Z,2.54
2018-03-02T15:36:23.161Z,2.50
2018-03-02T15:38:52.264Z,2.45
2018-03-02T15:41:22.156Z,2.40
2018-03-02T15:43:51.268Z,2.32
2018-03-02T15:46:20.347Z,2.29
2018-03-02T15:48:49.508Z,2.24
2018-03-02T15:51:18.664Z,2.39
2018-03-02T15:53:48.602Z,2.33
2018-03-02T15:56:18.500Z,2.38
2018-03-02T15:58:48.411Z,2.26
2018-03-02T16:01:18.284Z,2.12
2018-03-02T16:03:47.368Z,1.96
2018-03-02T16:06:16.493Z,1.75
2018-03-02T16:08:45.599Z,1.78
2018-03-02T16:11:14.698Z,1.84
2018-03-02T16:13:43.830Z,1.67
2018-03-02T16:16:12.926Z,1.55
2018-03-02T16:18:42.047Z,1.44
2018-03-02T16:21:11.143Z,1.40
2018-03-02T16:23:40.288Z,1.29
2018-03-02T16:26:09.437Z,1.26
2018-03-02T16:28:38.563Z,1.28
2018-03-02T16:31:07.679Z,1.36
2018-03-02T16:33:37.587Z,1.39
2018-03-02T16:36:06.704Z,1.46
2018-03-02T16:38:36.609Z,1.39
2018-03-02T16:41:06.531Z,1.49
2018-03-02T16:43:36.425Z,1.50
2018-03-02T16:46:05.541Z,1.55
2018-03-02T16:48:35.462Z,1.45
2018-03-02T16:51:04.585Z,1.40
2018-03-02T16:53:34.581Z,1.30
2018-03-02T16:56:03.703Z,1.13
2018-03-02T16:58:32.798Z,1.03
2018-03-02T17:01:01.936Z,1.12
2018-03-02T17:03:31.082Z,1.09
2018-03-02T17:06:00.203Z,0.90
2018-03-02T17:08:29.366Z,0.85
2018-03-02T17:10:58.472Z,0.79
2018-03-02T17:13:27.597Z,0.72
2018-03-02T17:15:56.735Z,0.87
2018-03-02T17:18:26.625Z,0.95
2018-03-02T17:20:55.806Z,0.93
2018-03-02T17:23:24.914Z,0.94
2018-03-02T17:25:54.024Z,0.87
2018-03-02T17:28:23.179Z,0.89
2018-03-02T17:30:52.315Z,0.99
2018-03-02T17:33:22.957Z,1.04
2018-03-02T17:35:52.093Z,1.00
2018-03-02T17:38:21.261Z,1.04
2018-03-02T17:40:51.133Z,1.04
2018-03-02T17:43:20.284Z,1.05
2018-03-02T17:45:50.167Z,1.04
2018-03-02T17:48:19.287Z,0.99
2018-03-02T17:50:48.457Z,1.04
2018-03-02T17:53:17.538Z,1.14
2018-03-02T17:55:46.675Z,1.13
2018-03-02T17:58:16.539Z,1.11
2018-03-02T18:00:45.682Z,1.12
2018-03-02T18:03:15.591Z,1.26
2018-03-02T18:05:44.774Z,1.18
2018-03-02T18:08:13.856Z,1.14
2018-03-02T18:10:43.757Z,1.11
2018-03-02T18:13:12.839Z,1.02
2018-03-02T18:15:41.980Z,0.99
2018-03-02T18:18:11.118Z,1.03
2018-03-02T18:20:40.238Z,1.00
2018-03-02T18:23:09.390Z,1.09
2018-03-02T18:25:39.287Z,1.04
2018-03-02T18:28:08.417Z,0.97
2018-03-02T18:30:38.322Z,0.98
2018-03-02T18:33:08.191Z,0.98
2018-03-02T18:35:37.336Z,0.98
2018-03-02T18:38:07.240Z,1.06
2018-03-02T18:40:36.348Z,1.01
2018-03-02T18:43:06.219Z,1.09
2018-03-02T18:45:36.857Z,1.12
2018-03-02T18:48:05.971Z,1.04
2018-03-02T18:50:35.094Z,0.98
2018-03-02T18:53:04.219Z,0.93
2018-03-02T18:55:33.374Z,0.96
2018-03-02T18:58:03.273Z,0.95
2018-03-02T19:00:32.394Z,0.92
2018-03-02T19:03:01.527Z,0.84
2018-03-02T19:05:30.706Z,0.92
2018-03-02T19:07:59.816Z,1.00
2018-03-02T19:10:28.928Z,0.99
2018-03-02T19:12:58.075Z,0.98
2018-03-02T19:15:27.207Z,0.96
2018-03-02T19:17:56.345Z,0.85
2018-03-02T19:20:25.502Z,0.88
2018-03-02T19:22:54.618Z,0.99
2018-03-02T19:25:23.736Z,0.95
2018-03-02T19:27:52.863Z,0.95
2018-03-02T19:30:22.750Z,1.08
2018-03-02T19:32:51.849Z,1.00
2018-03-02T19:35:21.774Z,0.96
2018-03-02T19:37:51.658Z,0.91
2018-03-02T19:40:20.829Z,0.93
2018-03-02T19:42:49.970Z,0.90
2018-03-02T19:45:19.134Z,0.84
2018-03-02T19:47:48.285Z,0.87
2018-03-02T19:50:18.205Z,0.85
2018-03-02T19:52:48.103Z,0.84
2018-03-02T19:55:18.150Z,0.77
2018-03-02T19:57:47.272Z,0.80
2018-03-02T20:00:16.407Z,0.81
2018-03-02T20:02:45.561Z,0.82
2018-03-02T20:05:14.684Z,0.78
2018-03-02T20:07:43.813Z,0.90
2018-03-02T20:10:13.703Z,0.91
2018-03-02T20:12:44.396Z,1.06
2018-03-02T20:15:13.507Z,1.08
2018-03-02T20:17:42.657Z,1.15
2018-03-02T20:20:12.545Z,1.23
2018-03-02T20:22:41.672Z,1.30
2018-03-02T20:25:11.171Z,1.27
2018-03-02T20:27:40.347Z,1.24
2018-03-02T20:30:09.498Z,1.18
2018-03-02T20:32:38.704Z,1.13
2018-03-02T20:35:07.871Z,1.09
2018-03-02T20:37:37.773Z,0.97
2018-03-02T20:40:06.900Z,1.32
2018-03-02T20:42:36.020Z,1.34
2018-03-02T20:45:05.175Z,1.30
2018-03-02T20:47:35.117Z,1.32
2018-03-02T20:50:04.252Z,1.22
2018-03-02T20:52:33.458Z,1.19
2018-03-02T20:55:02.540Z,1.18
2018-03-02T20:57:31.668Z,1.19
2018-03-02T21:00:01.579Z,1.14
2018-03-02T21:02:31.491Z,1.28
2018-03-02T21:05:02.070Z,1.20
2018-03-02T21:07:31.191Z,1.18
2018-03-02T21:10:00.334Z,1.11
2018-03-02T21:12:31.312Z,1.22
2018-03-02T21:15:00.474Z,1.39
2018-03-02T21:17:29.629Z,1.38
2018-03-02T21:19:58.738Z,1.30
2018-03-02T21:22:27.896Z,1.41
2018-03-02T21:24:57.039Z,1.59
2018-03-02T21:27:26.175Z,1.51
2018-03-02T21:29:56.354Z,1.46
2018-03-02T21:32:25.454Z,1.43
2018-03-02T21:34:55.366Z,1.38
2018-03-02T21:37:24.475Z,1.32
2018-03-02T21:39:54.391Z,1.38
2018-03-02T21:42:24.291Z,1.32
2018-03-02T21:44:53.416Z,1.31
2018-03-02T21:47:22.535Z,1.40
2018-03-02T21:49:51.662Z,1.50
2018-03-02T21:52:20.749Z,1.54
2018-03-02T21:54:49.927Z,1.48
2018-03-02T21:57:19.041Z,1.50
2018-03-02T21:59:48.914Z,1.40
2018-03-02T22:02:18.059Z,1.34
2018-03-02T22:04:47.181Z,1.39
2018-03-02T22:07:17.086Z,1.45
2018-03-02T22:09:46.201Z,1.51
2018-03-02T22:12:16.092Z,1.60
2018-03-02T22:14:45.202Z,1.59
2018-03-02T22:17:14.315Z,1.40
2018-03-02T22:19:43.421Z,1.51
2018-03-02T22:22:12.560Z,1.49
2018-03-02T22:24:41.674Z,1.64
2018-03-02T22:27:10.813Z,1.53
2018-03-02T22:29:39.935Z,1.46
2018-03-02T22:32:09.057Z,1.43
2018-03-02T22:34:38.177Z,1.47
2018-03-02T22:37:08.073Z,1.51
2018-03-02T22:39:37.183Z,1.44
2018-03-02T22:42:06.286Z,1.50
2018-03-02T22:44:36.175Z,1.51
2018-03-02T22:47:05.302Z,1.43
2018-03-02T22:49:35.189Z,1.36
2018-03-02T22:52:04.330Z,1.48
2018-03-02T22:54:33.423Z,1.61
2018-03-02T22:57:02.561Z,1.45
2018-03-02T22:59:31.666Z,1.41
2018-03-02T23:02:00.812Z,1.41
2018-03-02T23:04:29.939Z,1.44
2018-03-02T23:06:59.061Z,1.52
2018-03-02T23:09:28.184Z,1.53
2018-03-02T23:11:58.083Z,1.46
2018-03-02T23:14:27.230Z,1.44
2018-03-02T23:16:56.316Z,1.49
2018-03-02T23:19:25.452Z,1.46
2018-03-02T23:21:54.594Z,1.52
2018-03-02T23:24:23.721Z,1.63
2018-03-02T23:26:52.813Z,1.76
2018-03-02T23:29:21.914Z,1.63
2018-03-02T23:31:52.478Z,1.76
2018-03-02T23:34:21.598Z,1.65
2018-03-02T23:36:50.712Z,1.65
2018-03-02T23:39:20.558Z,1.77
2018-03-02T23:41:49.687Z,1.65
2018-03-02T23:44:18.774Z,1.66
2018-03-02T23:46:47.896Z,1.57
2018-03-02T23:49:17.745Z,1.55
2018-03-02T23:51:47.631Z,1.57
2018-03-02T23:54:17.554Z,1.48
2018-03-02T23:56:47.456Z,1.45
2018-03-02T23:59:17.327Z,1.44
